sensor_id;sensor_type;location;lat;lon;timestamp;temperature;humidity
30889;DHT22;51092;50.874;7.024;2023-09-19T00:00:40;16.60;99.90
30889;DHT22;51092;50.874;7.024;2023-09-19T00:01:43;16.60;99.90
30889;DHT22;51092;50.874;7.024;2023-09-19T00:02:52;16.60;99.90
30889;DHT22;51092;50.874;7.024;2023-09-19T00:03:53;16.60;99.90
30889;DHT22;51092;50.874;7.024;2023-09-19T00:04:56;16.50;99.90
30889;DHT22;51092;50.874;7.024;2023-09-19T00:05:58;16.50;99.90
30889;DHT22;51092;50.874;7.024;2023-09-19T00:07:01;16.50;99.90
30889;DHT22;51092;50.874;7.024;2023-09-19T00:08:03;16.60;99.90
30889;DHT22;51092;50.874;7.024;2023-09-19T00:09:06;16.60;99.90
30889;DHT22;51092;50.874;7.024;2023-09-19T00:10:11;16.50;99.90
30889;DHT22;51092;50.874;7.024;2023-09-19T00:11:14;16.50;99.90
30889;DHT22;51092;50.874;7.024;2023-09-19T00:12:15;16.50;99.90
30889;DHT22;51092;50.874;7.024;2023-09-19T00:13:17;16.50;99.90
30889;DHT22;51092;50.874;7.024;2023-09-19T00:14:24;16.50;99.90
30889;DHT22;51092;50.874;7.024;2023-09-19T00:15:27;16.50;99.90
30889;DHT22;51092;50.874;7.024;2023-09-19T00:16:30;16.50;99.90
30889;DHT22;51092;50.874;7.024;2023-09-19T00:17:33;16.50;99.90
30889;DHT22;51092;50.874;7.024;2023-09-19T00:18:38;16.40;99.90
30889;DHT22;51092;50.874;7.024;2023-09-19T00:19:40;16.50;99.90
30889;DHT22;51092;50.874;7.024;2023-09-19T00:20:44;16.50;99.90
30889;DHT22;51092;50.874;7.024;2023-09-19T00:21:48;16.50;99.90
30889;DHT22;51092;50.874;7.024;2023-09-19T00:22:51;16.50;99.90
30889;DHT22;51092;50.874;7.024;2023-09-19T00:23:53;16.50;99.90
30889;DHT22;51092;50.874;7.024;2023-09-19T00:24:56;16.50;99.90
30889;DHT22;51092;50.874;7.024;2023-09-19T00:25:58;16.50;99.90
30889;DHT22;51092;50.874;7.024;2023-09-19T00:27:02;16.50;99.90
30889;DHT22;51092;50.874;7.024;2023-09-19T00:28:04;16.50;99.90
30889;DHT22;51092;50.874;7.024;2023-09-19T00:29:08;16.40;99.90
30889;DHT22;51092;50.874;7.024;2023-09-19T00:30:12;16.40;99.90
30889;DHT22;51092;50.874;7.024;2023-09-19T00:31:20;16.40;99.90
30889;DHT22;51092;50.874;7.024;2023-09-19T00:32:26;16.50;99.90
30889;DHT22;51092;50.874;7.024;2023-09-19T00:33:32;16.50;99.90
30889;DHT22;51092;50.874;7.024;2023-09-19T00:34:33;16.50;99.90
30889;DHT22;51092;50.874;7.024;2023-09-19T00:35:37;16.40;99.90
30889;DHT22;51092;50.874;7.024;2023-09-19T00:36:38;16.40;99.90
30889;DHT22;51092;50.874;7.024;2023-09-19T00:37:41;16.40;99.90
30889;DHT22;51092;50.874;7.024;2023-09-19T00:38:42;16.40;99.90
30889;DHT22;51092;50.874;7.024;2023-09-19T00:39:46;16.40;99.90
30889;DHT22;51092;50.874;7.024;2023-09-19T00:40:49;16.40;99.90
30889;DHT22;51092;50.874;7.024;2023-09-19T00:41:52;16.30;99.90
30889;DHT22;51092;50.874;7.024;2023-09-19T00:42:57;16.30;99.90
30889;DHT22;51092;50.874;7.024;2023-09-19T00:44:01;16.40;99.90
30889;DHT22;51092;50.874;7.024;2023-09-19T00:45:03;16.40;99.90
30889;DHT22;51092;50.874;7.024;2023-09-19T00:46:08;16.30;99.90
30889;DHT22;51092;50.874;7.024;2023-09-19T00:47:11;16.20;99.90
30889;DHT22;51092;50.874;7.024;2023-09-19T00:48:18;16.20;99.90
30889;DHT22;51092;50.874;7.024;2023-09-19T00:49:20;16.20;99.90
30889;DHT22;51092;50.874;7.024;2023-09-19T00:50:25;16.30;99.90
30889;DHT22;51092;50.874;7.024;2023-09-19T00:51:28;16.40;99.90
30889;DHT22;51092;50.874;7.024;2023-09-19T00:52:31;16.40;99.90
30889;DHT22;51092;50.874;7.024;2023-09-19T00:53:34;16.40;99.90
30889;DHT22;51092;50.874;7.024;2023-09-19T00:54:36;16.30;99.90
30889;DHT22;51092;50.874;7.024;2023-09-19T00:55:38;16.30;99.90
30889;DHT22;51092;50.874;7.024;2023-09-19T00:56:41;16.30;99.90
30889;DHT22;51092;50.874;7.024;2023-09-19T00:57:43;16.30;99.90
30889;DHT22;51092;50.874;7.024;2023-09-19T00:58:46;16.20;99.90
30889;DHT22;51092;50.874;7.024;2023-09-19T00:59:48;16.30;99.90
30889;DHT22;51092;50.874;7.024;2023-09-19T01:00:52;16.30;99.90
30889;DHT22;51092;50.874;7.024;2023-09-19T01:01:56;16.40;99.90
30889;DHT22;51092;50.874;7.024;2023-09-19T01:03:01;16.40;99.90
30889;DHT22;51092;50.874;7.024;2023-09-19T01:04:03;16.30;99.90
30889;DHT22;51092;50.874;7.024;2023-09-19T01:05:06;16.40;99.90
30889;DHT22;51092;50.874;7.024;2023-09-19T01:06:09;16.30;99.90
30889;DHT22;51092;50.874;7.024;2023-09-19T01:07:13;16.30;99.90
30889;DHT22;51092;50.874;7.024;2023-09-19T01:08:16;16.30;99.90
30889;DHT22;51092;50.874;7.024;2023-09-19T01:09:19;16.40;99.90
30889;DHT22;51092;50.874;7.024;2023-09-19T01:10:21;16.40;99.90
30889;DHT22;51092;50.874;7.024;2023-09-19T01:11:30;16.40;99.90
30889;DHT22;51092;50.874;7.024;2023-09-19T01:12:46;16.50;99.90
30889;DHT22;51092;50.874;7.024;2023-09-19T01:13:57;16.50;99.90
30889;DHT22;51092;50.874;7.024;2023-09-19T01:15:06;16.50;99.90
30889;DHT22;51092;50.874;7.024;2023-09-19T01:16:19;16.50;99.90
30889;DHT22;51092;50.874;7.024;2023-09-19T01:17:29;16.50;99.90
30889;DHT22;51092;50.874;7.024;2023-09-19T01:18:38;16.50;99.90
30889;DHT22;51092;50.874;7.024;2023-09-19T01:20:09;16.60;99.90
30889;DHT22;51092;50.874;7.024;2023-09-19T01:21:21;16.60;99.90
30889;DHT22;51092;50.874;7.024;2023-09-19T01:22:29;16.60;99.90
30889;DHT22;51092;50.874;7.024;2023-09-19T01:23:46;16.70;99.90
30889;DHT22;51092;50.874;7.024;2023-09-19T01:25:07;16.70;99.90
30889;DHT22;51092;50.874;7.024;2023-09-19T01:26:30;16.70;99.90
30889;DHT22;51092;50.874;7.024;2023-09-19T01:27:59;16.70;99.90
30889;DHT22;51092;50.874;7.024;2023-09-19T01:29:17;16.70;99.90
30889;DHT22;51092;50.874;7.024;2023-09-19T01:30:34;16.70;99.90
30889;DHT22;51092;50.874;7.024;2023-09-19T01:31:40;16.70;99.90
30889;DHT22;51092;50.874;7.024;2023-09-19T01:32:43;16.70;99.90
30889;DHT22;51092;50.874;7.024;2023-09-19T01:33:55;16.70;99.90
30889;DHT22;51092;50.874;7.024;2023-09-19T01:34:58;16.70;99.90
30889;DHT22;51092;50.874;7.024;2023-09-19T01:36:05;16.70;99.90
30889;DHT22;51092;50.874;7.024;2023-09-19T01:37:06;16.70;99.90
30889;DHT22;51092;50.874;7.024;2023-09-19T01:38:09;16.70;99.90
30889;DHT22;51092;50.874;7.024;2023-09-19T01:39:13;16.70;99.90
30889;DHT22;51092;50.874;7.024;2023-09-19T01:40:18;16.70;99.90
30889;DHT22;51092;50.874;7.024;2023-09-19T01:41:26;16.60;99.90
30889;DHT22;51092;50.874;7.024;2023-09-19T01:42:39;16.60;99.90
30889;DHT22;51092;50.874;7.024;2023-09-19T01:43:43;16.60;99.90
30889;DHT22;51092;50.874;7.024;2023-09-19T01:44:53;16.60;99.90
30889;DHT22;51092;50.874;7.024;2023-09-19T01:46:04;16.60;99.90
30889;DHT22;51092;50.874;7.024;2023-09-19T01:47:16;16.60;99.90
30889;DHT22;51092;50.874;7.024;2023-09-19T01:48:24;16.50;99.90
30889;DHT22;51092;50.874;7.024;2023-09-19T01:49:35;16.50;99.90
30889;DHT22;51092;50.874;7.024;2023-09-19T01:50:43;16.50;99.90
30889;DHT22;51092;50.874;7.024;2023-09-19T01:51:51;16.50;99.90
30889;DHT22;51092;50.874;7.024;2023-09-19T01:52:59;16.50;99.90
30889;DHT22;51092;50.874;7.024;2023-09-19T01:54:09;16.50;99.90
30889;DHT22;51092;50.874;7.024;2023-09-19T01:55:13;16.50;99.90
30889;DHT22;51092;50.874;7.024;2023-09-19T01:56:23;16.50;99.90
30889;DHT22;51092;50.874;7.024;2023-09-19T01:57:28;16.50;99.90
30889;DHT22;51092;50.874;7.024;2023-09-19T01:58:34;16.60;99.90
30889;DHT22;51092;50.874;7.024;2023-09-19T01:59:41;16.60;99.90
30889;DHT22;51092;50.874;7.024;2023-09-19T02:00:48;16.60;99.90
30889;DHT22;51092;50.874;7.024;2023-09-19T02:01:54;16.50;99.90
30889;DHT22;51092;50.874;7.024;2023-09-19T02:02:58;16.50;99.90
30889;DHT22;51092;50.874;7.024;2023-09-19T02:04:00;16.50;99.90
30889;DHT22;51092;50.874;7.024;2023-09-19T02:05:04;16.50;99.90
30889;DHT22;51092;50.874;7.024;2023-09-19T02:06:06;16.60;99.90
30889;DHT22;51092;50.874;7.024;2023-09-19T02:07:12;16.50;99.90
30889;DHT22;51092;50.874;7.024;2023-09-19T02:08:17;16.50;99.90
30889;DHT22;51092;50.874;7.024;2023-09-19T02:09:19;16.50;99.90
30889;DHT22;51092;50.874;7.024;2023-09-19T02:10:22;16.50;99.90
30889;DHT22;51092;50.874;7.024;2023-09-19T02:11:24;16.50;99.90
30889;DHT22;51092;50.874;7.024;2023-09-19T02:12:25;16.40;99.90
30889;DHT22;51092;50.874;7.024;2023-09-19T02:13:28;16.40;99.90
30889;DHT22;51092;50.874;7.024;2023-09-19T02:14:30;16.40;99.90
30889;DHT22;51092;50.874;7.024;2023-09-19T02:15:32;16.40;99.90
30889;DHT22;51092;50.874;7.024;2023-09-19T02:16:35;16.40;99.90
30889;DHT22;51092;50.874;7.024;2023-09-19T02:17:39;16.40;99.90
30889;DHT22;51092;50.874;7.024;2023-09-19T02:18:40;16.40;99.90
30889;DHT22;51092;50.874;7.024;2023-09-19T02:19:43;16.30;99.90
30889;DHT22;51092;50.874;7.024;2023-09-19T02:20:45;16.30;99.90
30889;DHT22;51092;50.874;7.024;2023-09-19T02:21:47;16.30;99.90
30889;DHT22;51092;50.874;7.024;2023-09-19T02:22:49;16.30;99.90
30889;DHT22;51092;50.874;7.024;2023-09-19T02:23:53;16.20;99.90
30889;DHT22;51092;50.874;7.024;2023-09-19T02:24:54;16.20;99.90
30889;DHT22;51092;50.874;7.024;2023-09-19T02:25:59;16.20;99.90
30889;DHT22;51092;50.874;7.024;2023-09-19T02:27:01;16.20;99.90
30889;DHT22;51092;50.874;7.024;2023-09-19T02:28:05;16.20;99.90
30889;DHT22;51092;50.874;7.024;2023-09-19T02:29:07;16.20;99.90
30889;DHT22;51092;50.874;7.024;2023-09-19T02:30:13;16.20;99.90
30889;DHT22;51092;50.874;7.024;2023-09-19T02:31:17;16.10;99.90
30889;DHT22;51092;50.874;7.024;2023-09-19T02:32:19;16.10;99.90
30889;DHT22;51092;50.874;7.024;2023-09-19T02:33:22;16.10;99.90
30889;DHT22;51092;50.874;7.024;2023-09-19T02:34:25;16.10;99.90
30889;DHT22;51092;50.874;7.024;2023-09-19T02:35:26;16.10;99.90
30889;DHT22;51092;50.874;7.024;2023-09-19T02:36:29;16.00;99.90
30889;DHT22;51092;50.874;7.024;2023-09-19T02:37:32;16.00;99.90
30889;DHT22;51092;50.874;7.024;2023-09-19T02:38:34;16.00;99.90
30889;DHT22;51092;50.874;7.024;2023-09-19T02:39:36;16.00;99.90
30889;DHT22;51092;50.874;7.024;2023-09-19T02:40:38;16.00;99.90
30889;DHT22;51092;50.874;7.024;2023-09-19T02:41:41;15.90;99.90
30889;DHT22;51092;50.874;7.024;2023-09-19T02:42:43;15.90;99.90
30889;DHT22;51092;50.874;7.024;2023-09-19T02:43:49;15.90;99.90
30889;DHT22;51092;50.874;7.024;2023-09-19T02:44:52;15.90;99.90
30889;DHT22;51092;50.874;7.024;2023-09-19T02:45:54;15.90;99.90
30889;DHT22;51092;50.874;7.024;2023-09-19T02:46:58;15.90;99.90
30889;DHT22;51092;50.874;7.024;2023-09-19T02:48:00;15.90;99.90
30889;DHT22;51092;50.874;7.024;2023-09-19T02:49:05;15.90;99.90
30889;DHT22;51092;50.874;7.024;2023-09-19T02:50:08;15.90;99.90
30889;DHT22;51092;50.874;7.024;2023-09-19T02:51:12;15.90;99.90
30889;DHT22;51092;50.874;7.024;2023-09-19T02:52:15;15.90;99.90
30889;DHT22;51092;50.874;7.024;2023-09-19T02:53:17;15.80;99.90
30889;DHT22;51092;50.874;7.024;2023-09-19T02:54:20;15.90;99.90
30889;DHT22;51092;50.874;7.024;2023-09-19T02:55:24;15.80;99.90
30889;DHT22;51092;50.874;7.024;2023-09-19T02:56:26;15.80;99.90
30889;DHT22;51092;50.874;7.024;2023-09-19T02:57:29;15.80;99.90
30889;DHT22;51092;50.874;7.024;2023-09-19T02:58:31;15.80;99.90
30889;DHT22;51092;50.874;7.024;2023-09-19T02:59:36;15.80;99.90
30889;DHT22;51092;50.874;7.024;2023-09-19T03:00:38;15.80;99.90
30889;DHT22;51092;50.874;7.024;2023-09-19T03:01:43;15.80;99.90
30889;DHT22;51092;50.874;7.024;2023-09-19T03:02:45;15.80;99.90
30889;DHT22;51092;50.874;7.024;2023-09-19T03:03:48;15.70;99.90
30889;DHT22;51092;50.874;7.024;2023-09-19T03:04:50;15.70;99.90
30889;DHT22;51092;50.874;7.024;2023-09-19T03:05:53;15.70;99.90
30889;DHT22;51092;50.874;7.024;2023-09-19T03:06:55;15.70;99.90
30889;DHT22;51092;50.874;7.024;2023-09-19T03:08:01;15.70;99.90
30889;DHT22;51092;50.874;7.024;2023-09-19T03:09:03;15.70;99.90
30889;DHT22;51092;50.874;7.024;2023-09-19T03:10:08;15.60;99.90
30889;DHT22;51092;50.874;7.024;2023-09-19T03:11:10;15.60;99.90
30889;DHT22;51092;50.874;7.024;2023-09-19T03:12:14;15.60;99.90
30889;DHT22;51092;50.874;7.024;2023-09-19T03:13:17;15.60;99.90
30889;DHT22;51092;50.874;7.024;2023-09-19T03:14:19;15.70;99.90
30889;DHT22;51092;50.874;7.024;2023-09-19T03:15:21;15.70;99.90
30889;DHT22;51092;50.874;7.024;2023-09-19T03:16:23;15.70;99.90
30889;DHT22;51092;50.874;7.024;2023-09-19T03:17:26;15.70;99.90
30889;DHT22;51092;50.874;7.024;2023-09-19T03:18:29;15.70;99.90
30889;DHT22;51092;50.874;7.024;2023-09-19T03:19:31;15.70;99.90
30889;DHT22;51092;50.874;7.024;2023-09-19T03:20:35;15.70;99.90
30889;DHT22;51092;50.874;7.024;2023-09-19T03:21:37;15.70;99.90
30889;DHT22;51092;50.874;7.024;2023-09-19T03:22:40;15.80;99.90
30889;DHT22;51092;50.874;7.024;2023-09-19T03:23:42;15.80;99.90
30889;DHT22;51092;50.874;7.024;2023-09-19T03:24:46;15.80;99.90
30889;DHT22;51092;50.874;7.024;2023-09-19T03:25:48;15.80;99.90
30889;DHT22;51092;50.874;7.024;2023-09-19T03:26:50;15.70;99.90
30889;DHT22;51092;50.874;7.024;2023-09-19T03:27:52;15.80;99.90
30889;DHT22;51092;50.874;7.024;2023-09-19T03:28:54;15.70;99.90
30889;DHT22;51092;50.874;7.024;2023-09-19T03:29:56;15.70;99.90
30889;DHT22;51092;50.874;7.024;2023-09-19T03:31:00;15.80;99.90
30889;DHT22;51092;50.874;7.024;2023-09-19T03:32:03;15.70;99.90
30889;DHT22;51092;50.874;7.024;2023-09-19T03:33:05;15.70;99.90
30889;DHT22;51092;50.874;7.024;2023-09-19T03:34:07;15.80;99.90
30889;DHT22;51092;50.874;7.024;2023-09-19T03:35:10;15.70;99.90
30889;DHT22;51092;50.874;7.024;2023-09-19T03:36:16;15.70;99.90
30889;DHT22;51092;50.874;7.024;2023-09-19T03:37:18;15.80;99.90
30889;DHT22;51092;50.874;7.024;2023-09-19T03:38:21;15.80;99.90
30889;DHT22;51092;50.874;7.024;2023-09-19T03:39:23;15.80;99.90
30889;DHT22;51092;50.874;7.024;2023-09-19T03:40:25;15.80;99.90
30889;DHT22;51092;50.874;7.024;2023-09-19T03:41:27;15.70;99.90
30889;DHT22;51092;50.874;7.024;2023-09-19T03:42:29;15.80;99.90
30889;DHT22;51092;50.874;7.024;2023-09-19T03:43:32;15.80;99.90
30889;DHT22;51092;50.874;7.024;2023-09-19T03:44:34;15.80;99.90
30889;DHT22;51092;50.874;7.024;2023-09-19T03:45:36;15.80;99.90
30889;DHT22;51092;50.874;7.024;2023-09-19T03:46:39;15.70;99.90
30889;DHT22;51092;50.874;7.024;2023-09-19T03:47:41;15.70;99.90
30889;DHT22;51092;50.874;7.024;2023-09-19T03:48:43;15.70;99.90
30889;DHT22;51092;50.874;7.024;2023-09-19T03:49:45;15.70;99.90
30889;DHT22;51092;50.874;7.024;2023-09-19T03:50:47;15.70;99.90
30889;DHT22;51092;50.874;7.024;2023-09-19T03:51:50;15.70;99.90
30889;DHT22;51092;50.874;7.024;2023-09-19T03:52:56;15.70;99.90
30889;DHT22;51092;50.874;7.024;2023-09-19T03:53:58;15.70;99.90
30889;DHT22;51092;50.874;7.024;2023-09-19T03:55:00;15.70;99.90
30889;DHT22;51092;50.874;7.024;2023-09-19T03:56:03;15.70;99.90
30889;DHT22;51092;50.874;7.024;2023-09-19T03:57:06;15.70;99.90
30889;DHT22;51092;50.874;7.024;2023-09-19T03:58:08;15.70;99.90
30889;DHT22;51092;50.874;7.024;2023-09-19T03:59:09;15.60;99.90
30889;DHT22;51092;50.874;7.024;2023-09-19T04:00:13;15.60;99.90
30889;DHT22;51092;50.874;7.024;2023-09-19T04:01:15;15.60;99.90
30889;DHT22;51092;50.874;7.024;2023-09-19T04:02:20;15.60;99.90
30889;DHT22;51092;50.874;7.024;2023-09-19T04:03:23;15.60;99.90
30889;DHT22;51092;50.874;7.024;2023-09-19T04:04:35;15.60;99.90
30889;DHT22;51092;50.874;7.024;2023-09-19T04:05:40;15.60;99.90
30889;DHT22;51092;50.874;7.024;2023-09-19T04:06:43;15.60;99.90
30889;DHT22;51092;50.874;7.024;2023-09-19T04:07:46;15.60;99.90
30889;DHT22;51092;50.874;7.024;2023-09-19T04:08:48;15.60;99.90
30889;DHT22;51092;50.874;7.024;2023-09-19T04:09:50;15.50;99.90
30889;DHT22;51092;50.874;7.024;2023-09-19T04:10:54;15.60;99.90
30889;DHT22;51092;50.874;7.024;2023-09-19T04:11:57;15.50;99.90
30889;DHT22;51092;50.874;7.024;2023-09-19T04:12:59;15.50;99.90
30889;DHT22;51092;50.874;7.024;2023-09-19T04:14:03;15.50;99.90
30889;DHT22;51092;50.874;7.024;2023-09-19T04:15:07;15.50;99.90
30889;DHT22;51092;50.874;7.024;2023-09-19T04:16:09;15.50;99.90
30889;DHT22;51092;50.874;7.024;2023-09-19T04:17:13;15.50;99.90
30889;DHT22;51092;50.874;7.024;2023-09-19T04:18:14;15.50;99.90
30889;DHT22;51092;50.874;7.024;2023-09-19T04:19:16;15.60;99.90
30889;DHT22;51092;50.874;7.024;2023-09-19T04:20:18;15.60;99.90
30889;DHT22;51092;50.874;7.024;2023-09-19T04:21:26;15.60;99.90
30889;DHT22;51092;50.874;7.024;2023-09-19T04:22:27;15.60;99.90
30889;DHT22;51092;50.874;7.024;2023-09-19T04:23:31;15.60;99.90
30889;DHT22;51092;50.874;7.024;2023-09-19T04:24:32;15.60;99.90
30889;DHT22;51092;50.874;7.024;2023-09-19T04:25:35;15.60;99.90
30889;DHT22;51092;50.874;7.024;2023-09-19T04:26:38;15.60;99.90
30889;DHT22;51092;50.874;7.024;2023-09-19T04:27:44;15.60;99.90
30889;DHT22;51092;50.874;7.024;2023-09-19T04:28:46;15.60;99.90
30889;DHT22;51092;50.874;7.024;2023-09-19T04:29:48;15.60;99.90
30889;DHT22;51092;50.874;7.024;2023-09-19T04:30:52;15.60;99.90
30889;DHT22;51092;50.874;7.024;2023-09-19T04:31:54;15.60;99.90
30889;DHT22;51092;50.874;7.024;2023-09-19T04:32:56;15.60;99.90
30889;DHT22;51092;50.874;7.024;2023-09-19T04:33:58;15.50;99.90
30889;DHT22;51092;50.874;7.024;2023-09-19T04:35:02;15.50;99.90
30889;DHT22;51092;50.874;7.024;2023-09-19T04:36:07;15.50;99.90
30889;DHT22;51092;50.874;7.024;2023-09-19T04:37:10;15.50;99.90
30889;DHT22;51092;50.874;7.024;2023-09-19T04:38:12;15.40;99.90
30889;DHT22;51092;50.874;7.024;2023-09-19T04:39:17;15.40;99.90
30889;DHT22;51092;50.874;7.024;2023-09-19T04:40:19;15.50;99.90
30889;DHT22;51092;50.874;7.024;2023-09-19T04:41:21;15.50;99.90
30889;DHT22;51092;50.874;7.024;2023-09-19T04:42:24;15.40;99.90
30889;DHT22;51092;50.874;7.024;2023-09-19T04:43:27;15.40;99.90
30889;DHT22;51092;50.874;7.024;2023-09-19T04:44:29;15.30;99.90
30889;DHT22;51092;50.874;7.024;2023-09-19T04:45:31;15.30;99.90
30889;DHT22;51092;50.874;7.024;2023-09-19T04:46:32;15.30;99.90
30889;DHT22;51092;50.874;7.024;2023-09-19T04:47:34;15.20;99.90
30889;DHT22;51092;50.874;7.024;2023-09-19T04:48:35;15.30;99.90
30889;DHT22;51092;50.874;7.024;2023-09-19T04:49:38;15.30;99.90
30889;DHT22;51092;50.874;7.024;2023-09-19T04:50:41;15.20;99.90
30889;DHT22;51092;50.874;7.024;2023-09-19T04:51:44;15.20;99.90
30889;DHT22;51092;50.874;7.024;2023-09-19T04:52:50;15.30;99.90
30889;DHT22;51092;50.874;7.024;2023-09-19T04:53:52;15.30;99.90
30889;DHT22;51092;50.874;7.024;2023-09-19T04:54:56;15.20;99.90
30889;DHT22;51092;50.874;7.024;2023-09-19T04:55:57;15.30;99.90
30889;DHT22;51092;50.874;7.024;2023-09-19T04:57:00;15.20;99.90
30889;DHT22;51092;50.874;7.024;2023-09-19T04:58:01;15.20;99.90
30889;DHT22;51092;50.874;7.024;2023-09-19T04:59:05;15.10;99.90
30889;DHT22;51092;50.874;7.024;2023-09-19T05:00:07;15.10;99.90
30889;DHT22;51092;50.874;7.024;2023-09-19T05:01:14;15.10;99.90
30889;DHT22;51092;50.874;7.024;2023-09-19T05:02:16;15.10;99.90
30889;DHT22;51092;50.874;7.024;2023-09-19T05:03:18;15.10;99.90
30889;DHT22;51092;50.874;7.024;2023-09-19T05:04:20;15.00;99.90
30889;DHT22;51092;50.874;7.024;2023-09-19T05:05:22;15.00;99.90
30889;DHT22;51092;50.874;7.024;2023-09-19T05:06:24;15.00;99.90
30889;DHT22;51092;50.874;7.024;2023-09-19T05:07:27;15.00;99.90
30889;DHT22;51092;50.874;7.024;2023-09-19T05:08:29;15.00;99.90
30889;DHT22;51092;50.874;7.024;2023-09-19T05:09:31;15.00;99.90
30889;DHT22;51092;50.874;7.024;2023-09-19T05:10:37;15.00;99.90
30889;DHT22;51092;50.874;7.024;2023-09-19T05:11:40;14.90;99.90
30889;DHT22;51092;50.874;7.024;2023-09-19T05:12:42;14.90;99.90
30889;DHT22;51092;50.874;7.024;2023-09-19T05:13:46;14.80;99.90
30889;DHT22;51092;50.874;7.024;2023-09-19T05:14:48;14.80;99.90
30889;DHT22;51092;50.874;7.024;2023-09-19T05:15:50;14.80;99.90
30889;DHT22;51092;50.874;7.024;2023-09-19T05:16:53;14.80;99.90
30889;DHT22;51092;50.874;7.024;2023-09-19T05:17:56;14.70;99.90
30889;DHT22;51092;50.874;7.024;2023-09-19T05:18:57;14.70;99.90
30889;DHT22;51092;50.874;7.024;2023-09-19T05:20:00;14.60;99.90
30889;DHT22;51092;50.874;7.024;2023-09-19T05:21:06;14.60;99.90
30889;DHT22;51092;50.874;7.024;2023-09-19T05:22:08;14.60;99.90
30889;DHT22;51092;50.874;7.024;2023-09-19T05:23:10;14.60;99.90
30889;DHT22;51092;50.874;7.024;2023-09-19T05:24:13;14.50;99.90
30889;DHT22;51092;50.874;7.024;2023-09-19T05:25:15;14.50;99.90
30889;DHT22;51092;50.874;7.024;2023-09-19T05:26:18;14.50;99.90
30889;DHT22;51092;50.874;7.024;2023-09-19T05:27:20;14.50;99.90
30889;DHT22;51092;50.874;7.024;2023-09-19T05:28:25;14.50;99.90
30889;DHT22;51092;50.874;7.024;2023-09-19T05:29:27;14.50;99.90
30889;DHT22;51092;50.874;7.024;2023-09-19T05:30:30;14.50;99.90
30889;DHT22;51092;50.874;7.024;2023-09-19T05:31:31;14.50;99.90
30889;DHT22;51092;50.874;7.024;2023-09-19T05:32:34;14.50;99.90
30889;DHT22;51092;50.874;7.024;2023-09-19T05:33:35;14.50;99.90
30889;DHT22;51092;50.874;7.024;2023-09-19T05:34:38;14.50;99.90
30889;DHT22;51092;50.874;7.024;2023-09-19T05:35:40;14.50;99.90
30889;DHT22;51092;50.874;7.024;2023-09-19T05:36:43;14.50;99.90
30889;DHT22;51092;50.874;7.024;2023-09-19T05:37:44;14.50;99.90
30889;DHT22;51092;50.874;7.024;2023-09-19T05:38:47;14.40;99.90
30889;DHT22;51092;50.874;7.024;2023-09-19T05:39:51;14.40;99.90
30889;DHT22;51092;50.874;7.024;2023-09-19T05:40:55;14.40;99.90
30889;DHT22;51092;50.874;7.024;2023-09-19T05:41:58;14.50;99.90
30889;DHT22;51092;50.874;7.024;2023-09-19T05:43:01;14.50;99.90
30889;DHT22;51092;50.874;7.024;2023-09-19T05:44:05;14.40;99.90
30889;DHT22;51092;50.874;7.024;2023-09-19T05:45:11;14.50;99.90
30889;DHT22;51092;50.874;7.024;2023-09-19T05:46:13;14.50;99.90
30889;DHT22;51092;50.874;7.024;2023-09-19T05:47:17;14.50;99.90
30889;DHT22;51092;50.874;7.024;2023-09-19T05:48:19;14.50;99.90
30889;DHT22;51092;50.874;7.024;2023-09-19T05:49:22;14.50;99.90
30889;DHT22;51092;50.874;7.024;2023-09-19T05:50:25;14.50;99.90
30889;DHT22;51092;50.874;7.024;2023-09-19T05:51:27;14.50;99.90
30889;DHT22;51092;50.874;7.024;2023-09-19T05:52:29;14.50;99.90
30889;DHT22;51092;50.874;7.024;2023-09-19T05:53:31;14.50;99.90
30889;DHT22;51092;50.874;7.024;2023-09-19T05:54:32;14.50;99.90
30889;DHT22;51092;50.874;7.024;2023-09-19T05:55:34;14.50;99.90
30889;DHT22;51092;50.874;7.024;2023-09-19T05:56:36;14.40;99.90
30889;DHT22;51092;50.874;7.024;2023-09-19T05:57:40;14.50;99.90
30889;DHT22;51092;50.874;7.024;2023-09-19T05:58:43;14.50;99.90
30889;DHT22;51092;50.874;7.024;2023-09-19T05:59:45;14.50;99.90
30889;DHT22;51092;50.874;7.024;2023-09-19T06:00:49;14.50;99.90
30889;DHT22;51092;50.874;7.024;2023-09-19T06:01:51;14.50;99.90
30889;DHT22;51092;50.874;7.024;2023-09-19T06:02:58;14.50;99.90
30889;DHT22;51092;50.874;7.024;2023-09-19T06:04:00;14.50;99.90
30889;DHT22;51092;50.874;7.024;2023-09-19T06:05:03;14.50;99.90
30889;DHT22;51092;50.874;7.024;2023-09-19T06:06:05;14.50;99.90
30889;DHT22;51092;50.874;7.024;2023-09-19T06:07:08;14.60;99.90
30889;DHT22;51092;50.874;7.024;2023-09-19T06:08:09;14.60;99.90
30889;DHT22;51092;50.874;7.024;2023-09-19T06:09:12;14.50;99.90
30889;DHT22;51092;50.874;7.024;2023-09-19T06:10:15;14.60;99.90
30889;DHT22;51092;50.874;7.024;2023-09-19T06:11:18;14.60;99.90
30889;DHT22;51092;50.874;7.024;2023-09-19T06:12:21;14.60;99.90
30889;DHT22;51092;50.874;7.024;2023-09-19T06:13:27;14.60;99.90
30889;DHT22;51092;50.874;7.024;2023-09-19T06:14:29;14.60;99.90
30889;DHT22;51092;50.874;7.024;2023-09-19T06:15:32;14.60;99.90
30889;DHT22;51092;50.874;7.024;2023-09-19T06:16:34;14.60;99.90
30889;DHT22;51092;50.874;7.024;2023-09-19T06:17:37;14.60;99.90
30889;DHT22;51092;50.874;7.024;2023-09-19T06:18:39;14.60;99.90
30889;DHT22;51092;50.874;7.024;2023-09-19T06:19:41;14.60;99.90
30889;DHT22;51092;50.874;7.024;2023-09-19T06:20:48;14.60;99.90
30889;DHT22;51092;50.874;7.024;2023-09-19T06:21:53;14.60;99.90
30889;DHT22;51092;50.874;7.024;2023-09-19T06:23:09;14.60;99.90
30889;DHT22;51092;50.874;7.024;2023-09-19T06:24:12;14.60;99.90
30889;DHT22;51092;50.874;7.024;2023-09-19T06:25:14;14.60;99.90
30889;DHT22;51092;50.874;7.024;2023-09-19T06:26:20;14.70;99.90
30889;DHT22;51092;50.874;7.024;2023-09-19T06:27:22;14.70;99.90
30889;DHT22;51092;50.874;7.024;2023-09-19T06:28:26;14.70;99.90
30889;DHT22;51092;50.874;7.024;2023-09-19T06:29:29;14.70;99.90
30889;DHT22;51092;50.874;7.024;2023-09-19T06:30:31;14.70;99.90
30889;DHT22;51092;50.874;7.024;2023-09-19T06:31:33;14.70;99.90
30889;DHT22;51092;50.874;7.024;2023-09-19T06:32:35;14.70;99.90
30889;DHT22;51092;50.874;7.024;2023-09-19T06:33:37;14.70;99.90
30889;DHT22;51092;50.874;7.024;2023-09-19T06:34:40;14.80;99.90
30889;DHT22;51092;50.874;7.024;2023-09-19T06:35:43;14.80;99.90
30889;DHT22;51092;50.874;7.024;2023-09-19T06:36:48;14.80;99.90
30889;DHT22;51092;50.874;7.024;2023-09-19T06:37:49;14.80;99.90
30889;DHT22;51092;50.874;7.024;2023-09-19T06:38:52;14.80;99.90
30889;DHT22;51092;50.874;7.024;2023-09-19T06:39:54;14.80;99.90
30889;DHT22;51092;50.874;7.024;2023-09-19T06:40:58;14.80;99.90
30889;DHT22;51092;50.874;7.024;2023-09-19T06:41:59;14.80;99.90
30889;DHT22;51092;50.874;7.024;2023-09-19T06:43:05;14.90;99.90